createdAt,value
2023-10-24T00:03:36.132Z,9.80
2023-10-24T00:06:04.815Z,11.30
2023-10-24T00:08:33.130Z,7.90
2023-10-24T00:11:02.850Z,8.80
2023-10-24T00:13:32.321Z,7.10
2023-10-24T00:16:02.065Z,13.40
2023-10-24T00:18:31.273Z,11.60
2023-10-24T00:21:00.236Z,9.40
2023-10-24T00:23:29.186Z,10.50
2023-10-24T00:25:57.871Z,5.30
2023-10-24T00:28:26.195Z,5.80
2023-10-24T00:30:54.532Z,9.10
2023-10-24T00:33:22.909Z,10.10
2023-10-24T00:35:51.868Z,9.50
2023-10-24T00:38:20.585Z,9.10
2023-10-24T00:40:49.153Z,8.80
2023-10-24T00:43:17.921Z,7.50
2023-10-24T00:45:46.626Z,7.90
2023-10-24T00:48:15.762Z,10.40
2023-10-24T00:50:44.702Z,9.70
2023-10-24T00:53:13.861Z,10.40
2023-10-24T00:55:43.047Z,8.10
2023-10-24T00:58:12.366Z,10.10
2023-10-24T01:00:45.792Z,11.50
2023-10-24T01:03:16.022Z,6.80
2023-10-24T01:05:45.543Z,8.50
2023-10-24T01:08:13.885Z,10.40
2023-10-24T01:10:42.851Z,14.30
2023-10-24T01:13:11.443Z,14.60
2023-10-24T01:15:39.908Z,14.60
2023-10-24T01:18:08.200Z,11.40
2023-10-24T01:20:37.201Z,11.90
2023-10-24T01:23:06.413Z,7.40
2023-10-24T01:25:40.409Z,6.70
2023-10-24T01:28:10.731Z,12.00
2023-10-24T01:30:41.060Z,6.80
2023-10-24T01:33:09.782Z,4.50
2023-10-24T01:35:38.285Z,5.80
2023-10-24T01:38:07.327Z,8.60
2023-10-24T01:40:35.839Z,3.70
2023-10-24T01:43:04.991Z,4.00
2023-10-24T01:45:34.555Z,2.50
2023-10-24T01:48:03.216Z,2.50
2023-10-24T01:50:31.555Z,1.30
2023-10-24T01:53:00.026Z,1.90
2023-10-24T01:55:29.074Z,1.70
2023-10-24T01:57:57.468Z,0.70
2023-10-24T02:00:26.036Z,1.90
2023-10-24T02:02:55.904Z,0.90
2023-10-24T02:05:24.966Z,1.70
2023-10-24T02:07:53.339Z,1.30
2023-10-24T02:10:21.692Z,3.10
2023-10-24T02:12:50.161Z,3.20
2023-10-24T02:15:18.571Z,1.10
2023-10-24T02:17:47.193Z,0.40
2023-10-24T02:20:15.992Z,1.30
2023-10-24T02:22:48.731Z,1.20
2023-10-24T02:25:17.441Z,0.90
2023-10-24T02:27:46.080Z,1.80
2023-10-24T02:30:14.988Z,0.50
2023-10-24T02:32:43.698Z,0.70
2023-10-24T02:35:12.009Z,1.90
2023-10-24T02:37:40.711Z,0.50
2023-10-24T02:40:10.921Z,0.70
2023-10-24T02:42:39.381Z,3.90
2023-10-24T02:45:08.453Z,1.40
2023-10-24T02:47:36.936Z,0.60
2023-10-24T02:50:06.280Z,1.60
2023-10-24T02:52:34.728Z,0.80
2023-10-24T02:55:03.252Z,1.10
2023-10-24T02:57:31.619Z,1.10
2023-10-24T03:00:00.146Z,1.70
2023-10-24T03:02:28.641Z,1.80
2023-10-24T03:04:57.130Z,1.10
2023-10-24T03:07:25.459Z,2.40
2023-10-24T03:09:54.064Z,2.10
2023-10-24T03:12:22.213Z,0.90
2023-10-24T03:14:52.763Z,1.70
2023-10-24T03:17:21.395Z,1.70
2023-10-24T03:19:49.857Z,1.60
2023-10-24T03:22:18.237Z,4.20
2023-10-24T03:24:47.070Z,3.40
2023-10-24T03:27:15.307Z,2.30
2023-10-24T03:29:44.844Z,2.20
2023-10-24T03:32:13.165Z,3.20
2023-10-24T03:34:43.639Z,3.10
2023-10-24T03:37:12.133Z,5.70
2023-10-24T03:39:40.790Z,1.60
2023-10-24T03:42:09.057Z,1.30
2023-10-24T03:44:38.045Z,3.00
2023-10-24T03:47:07.377Z,1.60
2023-10-24T03:49:35.890Z,2.10
2023-10-24T03:52:05.275Z,2.20
2023-10-24T03:54:33.785Z,1.60
2023-10-24T03:57:02.933Z,2.30
2023-10-24T03:59:31.337Z,1.80
2023-10-24T04:01:59.671Z,1.70
2023-10-24T04:04:30.880Z,1.30
2023-10-24T04:06:59.241Z,1.80
2023-10-24T04:09:38.164Z,2.90
2023-10-24T04:12:07.913Z,2.90
2023-10-24T04:14:36.831Z,0.40
2023-10-24T04:17:06.405Z,2.00
2023-10-24T04:19:35.232Z,2.90
2023-10-24T04:22:03.813Z,1.60
2023-10-24T04:24:32.185Z,0.70
2023-10-24T04:27:00.739Z,0.90
2023-10-24T04:29:28.969Z,1.00
2023-10-24T04:31:57.260Z,1.60
2023-10-24T04:34:26.255Z,0.80
2023-10-24T04:36:57.860Z,0.60
2023-10-24T04:39:28.458Z,1.20
2023-10-24T04:41:56.696Z,0.60
2023-10-24T04:44:26.317Z,1.30
2023-10-24T04:46:54.829Z,0.80
2023-10-24T04:49:24.185Z,0.20
2023-10-24T04:51:53.508Z,1.30
2023-10-24T04:54:23.113Z,0.50
2023-10-24T04:56:51.568Z,1.00
2023-10-24T04:59:20.468Z,0.90
2023-10-24T05:01:50.706Z,2.40
2023-10-24T05:04:22.553Z,1.60
2023-10-24T05:06:52.192Z,0.70
2023-10-24T05:09:21.114Z,0.90
2023-10-24T05:11:50.589Z,1.00
2023-10-24T05:14:19.500Z,0.50
2023-10-24T05:16:55.359Z,1.10
2023-10-24T05:19:24.749Z,0.90
2023-10-24T05:21:54.195Z,1.40
2023-10-24T05:24:22.539Z,0.40
2023-10-24T05:26:51.788Z,1.30
2023-10-24T05:29:20.624Z,0.70
2023-10-24T05:31:49.025Z,0.40
2023-10-24T05:34:17.606Z,1.50
2023-10-24T05:36:47.605Z,1.10
2023-10-24T05:39:16.407Z,0.40
2023-10-24T05:41:44.721Z,0.40
2023-10-24T05:44:13.158Z,1.70
2023-10-24T05:46:42.411Z,0.40
2023-10-24T05:49:11.462Z,0.90
2023-10-24T05:51:40.044Z,0.50
2023-10-24T05:54:08.857Z,1.40
2023-10-24T05:56:37.728Z,0.50
2023-10-24T05:59:06.005Z,1.50
2023-10-24T06:01:34.499Z,0.50
2023-10-24T06:04:03.270Z,0.90
2023-10-24T06:06:31.801Z,0.30
2023-10-24T06:09:00.109Z,1.20
2023-10-24T06:11:29.017Z,0.60
2023-10-24T06:13:57.491Z,2.80
2023-10-24T06:16:25.946Z,0.70
2023-10-24T06:18:54.359Z,2.10
2023-10-24T06:21:24.403Z,1.30
2023-10-24T06:23:53.731Z,1.00
2023-10-24T06:26:22.287Z,1.10
2023-10-24T06:28:50.660Z,2.60
2023-10-24T06:31:19.271Z,6.80
2023-10-24T06:33:47.734Z,4.50
2023-10-24T06:36:16.026Z,6.50
2023-10-24T06:38:44.313Z,2.90
2023-10-24T06:41:12.726Z,5.30
2023-10-24T06:43:41.252Z,2.80
2023-10-24T06:46:09.681Z,7.70
2023-10-24T06:48:38.453Z,4.40
2023-10-24T06:51:06.849Z,6.70
2023-10-24T06:53:35.389Z,2.90
2023-10-24T06:56:04.691Z,2.50
2023-10-24T06:58:33.010Z,2.60
2023-10-24T07:01:01.814Z,2.30
2023-10-24T07:03:30.226Z,1.50
2023-10-24T07:05:59.427Z,3.30
2023-10-24T07:08:27.770Z,1.70
2023-10-24T07:10:56.416Z,2.20
2023-10-24T07:13:24.940Z,1.90
2023-10-24T07:15:53.413Z,2.60
2023-10-24T07:18:21.991Z,1.60
2023-10-24T07:20:50.346Z,4.90
2023-10-24T07:23:18.762Z,0.30
2023-10-24T07:25:47.906Z,0.90
2023-10-24T07:28:16.931Z,0.80
2023-10-24T07:30:50.252Z,2.60
2023-10-24T07:33:23.036Z,2.70
2023-10-24T07:35:51.464Z,4.20
2023-10-24T07:38:20.133Z,2.00
2023-10-24T07:40:51.439Z,2.30
2023-10-24T07:43:19.964Z,3.40
2023-10-24T07:45:52.417Z,1.40
2023-10-24T07:48:22.038Z,2.10
2023-10-24T07:50:55.297Z,2.40
2023-10-24T07:53:25.850Z,1.20
2023-10-24T07:55:54.847Z,2.30
2023-10-24T07:58:26.469Z,4.90
2023-10-24T08:00:55.643Z,1.80
2023-10-24T08:03:24.030Z,4.00
2023-10-24T08:05:53.828Z,2.50
2023-10-24T08:08:23.443Z,4.00
2023-10-24T08:10:53.166Z,0.60
2023-10-24T08:13:21.773Z,2.90
2023-10-24T08:15:53.503Z,2.10
2023-10-24T08:18:23.133Z,4.40
2023-10-24T08:20:51.552Z,1.70
2023-10-24T08:23:21.556Z,1.40
2023-10-24T08:25:49.973Z,3.10
2023-10-24T08:28:20.078Z,0.60
2023-10-24T08:30:54.798Z,2.50
2023-10-24T08:33:23.509Z,8.40
2023-10-24T08:35:52.063Z,3.20
2023-10-24T08:38:22.724Z,1.60
2023-10-24T08:40:51.444Z,1.20
2023-10-24T08:43:24.131Z,3.10
2023-10-24T08:45:53.591Z,1.90
2023-10-24T08:48:25.152Z,1.10
2023-10-24T08:50:53.789Z,0.80
2023-10-24T08:53:22.186Z,1.00
2023-10-24T08:55:51.909Z,1.40
2023-10-24T08:58:22.128Z,0.40
2023-10-24T09:00:52.458Z,3.90
2023-10-24T09:03:23.862Z,0.50
2023-10-24T09:05:53.553Z,1.40
2023-10-24T09:08:21.931Z,1.90
2023-10-24T09:10:50.761Z,1.00
2023-10-24T09:13:19.580Z,2.30
2023-10-24T09:16:06.349Z,3.50
2023-10-24T09:18:36.953Z,1.30
2023-10-24T09:21:10.095Z,1.20
2023-10-24T09:23:39.413Z,3.30
2023-10-24T09:26:09.275Z,5.30
2023-10-24T09:28:38.452Z,3.00
2023-10-24T09:31:06.738Z,1.40
2023-10-24T09:33:42.053Z,5.00
2023-10-24T09:36:15.675Z,4.10
2023-10-24T09:38:47.087Z,0.90
2023-10-24T09:41:15.575Z,2.00
2023-10-24T09:43:49.332Z,1.20
2023-10-24T09:46:20.403Z,2.80
2023-10-24T09:48:48.998Z,0.70
2023-10-24T09:51:23.058Z,0.70
2023-10-24T09:53:53.150Z,1.40
2023-10-24T09:56:22.672Z,1.20
2023-10-24T09:58:52.769Z,0.70
2023-10-24T10:01:22.567Z,0.60
2023-10-24T10:03:51.775Z,1.20
2023-10-24T10:06:33.115Z,4.20
2023-10-24T10:09:13.434Z,2.80
2023-10-24T10:11:46.518Z,0.40
2023-10-24T10:14:30.722Z,0.90
2023-10-24T10:16:59.024Z,3.20
2023-10-24T10:19:52.735Z,0.90
2023-10-24T10:22:42.421Z,2.70
2023-10-24T10:25:32.653Z,2.00
2023-10-24T10:28:17.281Z,1.50
2023-10-24T10:32:39.836Z,2.40
2023-10-24T10:33:56.158Z,2.00
2023-10-24T10:36:26.443Z,2.10
2023-10-24T10:38:54.929Z,1.20
2023-10-24T10:41:26.095Z,1.40
2023-10-24T10:43:56.696Z,1.60
2023-10-24T10:46:34.218Z,0.30
2023-10-24T10:49:04.984Z,0.80
2023-10-24T10:51:40.646Z,2.10
2023-10-24T10:54:21.409Z,1.80
2023-10-24T10:56:50.556Z,1.70
2023-10-24T10:59:33.578Z,0.70
2023-10-24T11:02:26.402Z,0.90
2023-10-24T11:04:54.753Z,2.90
2023-10-24T11:07:52.579Z,1.90
2023-10-24T11:10:21.086Z,0.60
2023-10-24T11:12:49.839Z,2.10
2023-10-24T11:15:24.123Z,3.70
2023-10-24T11:17:53.892Z,0.60
2023-10-24T11:20:23.965Z,0.50
2023-10-24T11:22:52.648Z,3.10
2023-10-24T11:25:21.154Z,3.50
2023-10-24T11:27:49.797Z,2.60
2023-10-24T11:30:19.173Z,0.60
2023-10-24T11:32:47.676Z,2.20
2023-10-24T11:35:16.131Z,2.00
2023-10-24T11:37:44.383Z,1.70
2023-10-24T11:40:13.342Z,1.00
2023-10-24T11:42:41.865Z,2.60
2023-10-24T11:45:10.648Z,0.70
2023-10-24T11:47:38.982Z,2.00
2023-10-24T11:50:07.892Z,0.70
2023-10-24T11:52:36.424Z,2.30
2023-10-24T11:55:05.796Z,4.20
2023-10-24T11:57:34.290Z,6.00
2023-10-24T12:00:02.591Z,4.90
2023-10-24T12:02:41.884Z,2.90
2023-10-24T12:05:10.643Z,3.70
2023-10-24T12:07:39.066Z,1.40
2023-10-24T12:10:11.790Z,5.20
2023-10-24T12:12:43.516Z,0.40
2023-10-24T12:15:12.333Z,1.20
2023-10-24T12:17:45.030Z,1.50
2023-10-24T12:20:14.119Z,4.30
2023-10-24T12:22:42.967Z,4.30
2023-10-24T12:25:11.502Z,1.30
2023-10-24T12:27:41.590Z,2.00
2023-10-24T12:30:10.160Z,1.70
2023-10-24T12:32:39.254Z,1.40
2023-10-24T12:35:08.107Z,1.30
2023-10-24T12:37:37.421Z,1.70
2023-10-24T12:40:06.571Z,0.90
2023-10-24T12:42:35.341Z,0.60
2023-10-24T12:45:05.019Z,2.10
2023-10-24T12:47:34.105Z,3.90
2023-10-24T12:50:02.630Z,1.20
2023-10-24T12:52:31.333Z,1.70
2023-10-24T12:54:59.745Z,2.10
2023-10-24T12:57:28.158Z,2.10
2023-10-24T12:59:56.794Z,1.40
2023-10-24T13:02:25.219Z,2.60
2023-10-24T13:04:54.359Z,1.70
2023-10-24T13:07:22.648Z,1.80
2023-10-24T13:09:50.966Z,1.00
2023-10-24T13:12:19.445Z,0.10
2023-10-24T13:14:47.702Z,3.50
2023-10-24T13:17:16.534Z,0.30
2023-10-24T13:19:47.267Z,0.40
2023-10-24T13:22:15.610Z,0.50
2023-10-24T13:24:43.959Z,0.40
2023-10-24T13:27:12.334Z,0.40
2023-10-24T13:29:40.970Z,1.30
2023-10-24T13:32:09.763Z,3.80
2023-10-24T13:37:10.282Z,1.50
2023-10-24T13:39:39.119Z,0.50
2023-10-24T13:42:07.518Z,0.40
2023-10-24T13:44:36.229Z,4.30
2023-10-24T13:47:04.740Z,4.30
2023-10-24T13:49:33.186Z,2.80
2023-10-24T13:52:02.620Z,5.30
2023-10-24T13:54:31.138Z,2.80
2023-10-24T13:56:59.451Z,5.30
2023-10-24T13:59:27.702Z,8.10
2023-10-24T14:01:56.070Z,2.40
2023-10-24T14:04:24.731Z,3.00
2023-10-24T14:06:53.126Z,2.70
2023-10-24T14:09:21.696Z,1.90
2023-10-24T14:11:49.936Z,6.50
2023-10-24T14:14:18.246Z,3.20
2023-10-24T14:16:47.041Z,2.30
2023-10-24T14:19:15.399Z,4.30
2023-10-24T14:21:43.711Z,4.90
2023-10-24T14:24:12.615Z,2.50
2023-10-24T14:26:40.792Z,2.50
2023-10-24T14:29:09.176Z,2.70
2023-10-24T14:31:37.789Z,4.30
2023-10-24T14:34:06.239Z,8.40
2023-10-24T14:36:34.536Z,5.80
2023-10-24T14:39:02.956Z,9.50
2023-10-24T14:41:31.480Z,5.40
2023-10-24T14:44:00.438Z,8.00
2023-10-24T14:46:29.061Z,6.40
2023-10-24T14:48:57.582Z,5.50
2023-10-24T14:51:26.568Z,4.90
2023-10-24T14:53:55.406Z,5.50
2023-10-24T14:56:23.751Z,10.40
2023-10-24T14:58:52.038Z,8.60
2023-10-24T15:01:20.387Z,14.20
2023-10-24T15:03:48.828Z,15.40
2023-10-24T15:06:18.349Z,9.20
2023-10-24T15:08:47.064Z,10.30
2023-10-24T15:11:15.289Z,8.40
2023-10-24T15:13:43.628Z,15.20
2023-10-24T15:16:12.170Z,11.10
2023-10-24T15:18:40.759Z,6.60
2023-10-24T15:21:09.136Z,11.40
2023-10-24T15:23:37.520Z,13.20
2023-10-24T15:26:05.997Z,9.10
2023-10-24T15:28:34.492Z,12.90
2023-10-24T15:31:08.560Z,10.70
2023-10-24T15:33:37.108Z,14.70
2023-10-24T15:36:05.764Z,9.60
2023-10-24T15:38:34.455Z,11.10
2023-10-24T15:41:03.022Z,12.20
2023-10-24T15:43:32.251Z,10.90
2023-10-24T15:46:18.926Z,17.90
2023-10-24T15:48:50.899Z,14.40
2023-10-24T15:51:20.072Z,8.40
2023-10-24T15:53:48.912Z,12.90
2023-10-24T15:56:17.492Z,14.10
2023-10-24T15:58:46.054Z,8.60
2023-10-24T16:01:19.347Z,12.20
2023-10-24T16:03:48.095Z,11.40
2023-10-24T16:06:16.569Z,10.60
2023-10-24T16:08:44.789Z,10.30
2023-10-24T16:11:13.772Z,9.00
2023-10-24T16:13:42.296Z,9.70
2023-10-24T16:16:11.540Z,11.50
2023-10-24T16:18:40.088Z,10.70
2023-10-24T16:21:08.484Z,8.50
2023-10-24T16:23:37.110Z,7.80
2023-10-24T16:26:05.874Z,11.30
2023-10-24T16:28:34.524Z,13.50
2023-10-24T16:31:02.922Z,9.20
2023-10-24T16:33:31.421Z,10.90
2023-10-24T16:36:02.387Z,15.30
2023-10-24T16:38:30.980Z,12.80
2023-10-24T16:41:00.178Z,10.40
2023-10-24T16:43:29.913Z,12.10
2023-10-24T16:45:59.032Z,15.80
2023-10-24T16:48:27.430Z,17.60
2023-10-24T16:50:57.547Z,12.80
2023-10-24T16:53:27.293Z,9.20
2023-10-24T16:55:57.082Z,11.10
2023-10-24T16:58:26.148Z,16.40
2023-10-24T17:00:56.212Z,13.30
2023-10-24T17:03:24.669Z,19.10
2023-10-24T17:05:54.190Z,12.10
2023-10-24T17:08:22.659Z,13.90
2023-10-24T17:10:59.037Z,14.00
2023-10-24T17:13:27.630Z,15.30
2023-10-24T17:15:59.839Z,18.40
2023-10-24T17:18:28.250Z,14.80
2023-10-24T17:20:56.796Z,16.90
2023-10-24T17:23:25.980Z,15.80
2023-10-24T17:25:54.753Z,14.70
2023-10-24T17:28:23.123Z,17.70
2023-10-24T17:30:52.692Z,18.50
2023-10-24T17:33:21.104Z,14.30
2023-10-24T17:35:50.975Z,14.40
2023-10-24T17:38:19.620Z,17.70
2023-10-24T17:40:48.174Z,21.60
2023-10-24T17:43:16.540Z,10.70
2023-10-24T17:45:45.050Z,23.50
2023-10-24T17:48:13.513Z,12.60
2023-10-24T17:50:42.321Z,21.30
2023-10-24T17:53:11.522Z,17.50
2023-10-24T17:55:41.752Z,11.80
2023-10-24T17:58:10.291Z,15.90
2023-10-24T18:00:38.726Z,14.50
2023-10-24T18:03:07.143Z,9.90
2023-10-24T18:05:38.686Z,10.80
2023-10-24T18:08:07.940Z,14.10
2023-10-24T18:10:36.656Z,13.60
2023-10-24T18:13:05.032Z,9.90
2023-10-24T18:15:33.836Z,14.30
2023-10-24T18:18:02.282Z,14.30
2023-10-24T18:20:34.999Z,10.00
2023-10-24T18:23:03.402Z,14.70
2023-10-24T18:25:31.692Z,20.90
2023-10-24T18:28:00.053Z,13.40
2023-10-24T18:30:28.388Z,13.20
2023-10-24T18:32:56.682Z,9.90
2023-10-24T18:35:25.430Z,13.50
2023-10-24T18:37:53.722Z,7.20
2023-10-24T18:40:22.076Z,15.50
2023-10-24T18:42:51.107Z,7.90
2023-10-24T18:45:19.392Z,10.70
2023-10-24T18:47:47.651Z,13.30
2023-10-24T18:52:44.780Z,14.90
2023-10-24T18:55:13.216Z,7.70
2023-10-24T18:57:41.981Z,10.10
2023-10-24T19:00:10.682Z,9.10
2023-10-24T19:02:39.862Z,13.30
2023-10-24T19:05:08.631Z,11.70
2023-10-24T19:07:37.405Z,9.60
2023-10-24T19:10:07.281Z,9.00
2023-10-24T19:12:36.418Z,9.30
2023-10-24T19:15:06.611Z,5.70
2023-10-24T19:17:35.069Z,6.20
2023-10-24T19:20:04.468Z,5.80
2023-10-24T19:22:33.280Z,10.60
2023-10-24T19:25:04.029Z,8.20
2023-10-24T19:27:34.506Z,5.40
2023-10-24T19:30:03.115Z,11.90
2023-10-24T19:32:31.782Z,7.00
2023-10-24T19:35:00.506Z,7.30
2023-10-24T19:37:29.946Z,6.40
2023-10-24T19:39:58.607Z,6.80
2023-10-24T19:42:27.626Z,6.50
2023-10-24T19:44:56.809Z,5.60
2023-10-24T19:47:29.133Z,3.20
2023-10-24T19:49:57.604Z,4.60
2023-10-24T19:52:26.341Z,4.50
2023-10-24T19:54:55.081Z,3.30
2023-10-24T19:57:23.661Z,4.40
2023-10-24T19:59:52.071Z,2.80
2023-10-24T20:02:21.015Z,3.50
2023-10-24T20:04:50.045Z,2.20
2023-10-24T20:07:20.530Z,3.30
2023-10-24T20:11:34.913Z,2.60
2023-10-24T20:12:43.367Z,6.20
2023-10-24T20:15:12.742Z,3.30
2023-10-24T20:17:43.010Z,5.00
2023-10-24T20:20:13.649Z,5.10
2023-10-24T20:22:42.610Z,3.90
2023-10-24T20:25:11.064Z,4.80
2023-10-24T20:27:40.928Z,4.30
2023-10-24T20:30:10.120Z,2.30
2023-10-24T20:32:38.635Z,2.50
2023-10-24T20:35:07.248Z,2.70
2023-10-24T20:37:35.697Z,2.60
2023-10-24T20:40:05.205Z,2.20
2023-10-24T20:42:34.143Z,2.80
2023-10-24T20:45:03.337Z,5.60
2023-10-24T20:47:31.671Z,2.60
2023-10-24T20:50:00.163Z,3.80
2023-10-24T20:52:28.774Z,1.30
2023-10-24T20:54:57.341Z,3.40
2023-10-24T20:57:25.742Z,1.20
2023-10-24T20:59:54.391Z,0.90
2023-10-24T21:02:23.842Z,3.00
2023-10-24T21:04:52.607Z,2.10
2023-10-24T21:07:21.338Z,0.50
2023-10-24T21:09:49.727Z,1.20
2023-10-24T21:12:18.247Z,1.30
2023-10-24T21:14:47.733Z,1.80
2023-10-24T21:17:16.480Z,3.40
2023-10-24T21:19:45.064Z,1.40
2023-10-24T21:22:14.128Z,2.50
2023-10-24T21:24:44.618Z,1.40
2023-10-24T21:27:13.338Z,2.40
2023-10-24T21:29:42.293Z,1.50
2023-10-24T21:32:11.152Z,1.00
2023-10-24T21:34:40.350Z,2.50
2023-10-24T21:37:09.301Z,1.60
2023-10-24T21:39:37.914Z,2.10
2023-10-24T21:42:06.900Z,2.00
2023-10-24T21:44:43.521Z,0.80
2023-10-24T21:47:19.283Z,1.30
2023-10-24T21:49:47.842Z,0.60
2023-10-24T21:52:16.348Z,0.70
2023-10-24T21:54:45.663Z,1.10
2023-10-24T21:57:14.308Z,1.90
2023-10-24T21:59:43.565Z,1.20
2023-10-24T22:02:13.608Z,1.70
2023-10-24T22:04:42.037Z,1.60
2023-10-24T22:07:11.086Z,2.00
2023-10-24T22:09:40.090Z,2.40
2023-10-24T22:12:08.942Z,1.10
2023-10-24T22:14:37.342Z,2.50
2023-10-24T22:17:06.014Z,3.10
2023-10-24T22:19:34.397Z,1.00
2023-10-24T22:22:03.128Z,1.20
2023-10-24T22:24:31.882Z,0.90
2023-10-24T22:27:00.197Z,1.70
2023-10-24T22:29:28.550Z,0.60
2023-10-24T22:31:57.018Z,1.90
2023-10-24T22:34:25.462Z,0.60
2023-10-24T22:36:53.817Z,1.20
2023-10-24T22:39:22.206Z,1.30
2023-10-24T22:41:50.577Z,2.40
2023-10-24T22:44:19.212Z,1.30
2023-10-24T22:46:47.832Z,1.70
2023-10-24T22:49:16.223Z,1.90
2023-10-24T22:51:45.756Z,1.70
2023-10-24T22:54:14.281Z,1.80
2023-10-24T22:56:42.564Z,1.00
2023-10-24T22:59:10.842Z,4.00
2023-10-24T23:01:39.246Z,0.80
2023-10-24T23:04:07.568Z,2.20
2023-10-24T23:06:35.989Z,0.60
2023-10-24T23:09:04.719Z,1.40
2023-10-24T23:11:33.295Z,2.30
2023-10-24T23:14:01.852Z,1.90
2023-10-24T23:16:31.076Z,1.60
2023-10-24T23:18:59.704Z,3.20
2023-10-24T23:21:28.167Z,1.60
2023-10-24T23:23:57.011Z,1.50
2023-10-24T23:26:25.265Z,1.80
2023-10-24T23:28:53.674Z,1.00
2023-10-24T23:31:22.404Z,1.50
2023-10-24T23:33:54.447Z,1.10
2023-10-24T23:36:22.916Z,1.60
2023-10-24T23:38:51.200Z,1.40
2023-10-24T23:41:20.086Z,2.90
2023-10-24T23:43:48.750Z,1.40
2023-10-24T23:46:17.190Z,0.50
2023-10-24T23:48:45.923Z,0.70
2023-10-24T23:51:14.354Z,1.50
2023-10-24T23:53:42.704Z,0.70
2023-10-24T23:56:11.111Z,1.90
2023-10-24T23:58:39.716Z,4.80
